createdAt,value
2023-05-02T00:01:31.655Z,100.00
2023-05-02T00:03:58.866Z,100.00
2023-05-02T00:06:26.762Z,100.00
2023-05-02T00:08:53.920Z,100.00
2023-05-02T00:11:21.317Z,100.00
2023-05-02T00:13:48.768Z,100.00
2023-05-02T00:16:16.065Z,100.00
2023-05-02T00:18:43.259Z,100.00
2023-05-02T00:21:10.324Z,100.00
2023-05-02T00:23:37.447Z,100.00
2023-05-02T00:26:09.661Z,100.00
2023-05-02T00:28:40.542Z,100.00
2023-05-02T00:31:07.694Z,100.00
2023-05-02T00:33:34.729Z,100.00
2023-05-02T00:36:01.729Z,100.00
2023-05-02T00:38:29.007Z,100.00
2023-05-02T00:40:56.034Z,100.00
2023-05-02T00:43:23.304Z,100.00
2023-05-02T00:45:51.124Z,100.00
2023-05-02T00:48:20.744Z,100.00
2023-05-02T00:50:47.874Z,100.00
2023-05-02T00:53:15.544Z,100.00
2023-05-02T00:55:42.739Z,100.00
2023-05-02T00:58:14.924Z,100.00
2023-05-02T01:00:59.795Z,100.00
2023-05-02T01:03:46.741Z,100.00
2023-05-02T01:06:29.636Z,100.00
2023-05-02T01:09:13.479Z,100.00
2023-05-02T01:11:52.371Z,100.00
2023-05-02T01:14:21.603Z,100.00
2023-05-02T01:16:50.395Z,100.00
2023-05-02T01:19:27.083Z,100.00
2023-05-02T01:21:55.523Z,100.00
2023-05-02T01:24:29.828Z,100.00
2023-05-02T01:27:22.266Z,100.00
2023-05-02T01:29:52.093Z,100.00
2023-05-02T01:32:22.327Z,100.00
2023-05-02T01:34:52.865Z,100.00
2023-05-02T01:37:22.524Z,100.00
2023-05-02T01:39:51.333Z,100.00
2023-05-02T01:42:20.544Z,100.00
2023-05-02T01:44:49.204Z,100.00
2023-05-02T01:47:17.692Z,100.00
2023-05-02T01:49:45.957Z,100.00
2023-05-02T01:52:15.800Z,100.00
2023-05-02T01:54:43.867Z,100.00
2023-05-02T01:57:12.813Z,100.00
2023-05-02T01:59:41.307Z,100.00
2023-05-02T02:02:11.694Z,100.00
2023-05-02T02:04:40.808Z,100.00
2023-05-02T02:07:13.304Z,100.00
2023-05-02T02:09:41.083Z,100.00
2023-05-02T02:12:29.409Z,100.00
2023-05-02T02:15:16.681Z,100.00
2023-05-02T02:17:49.703Z,100.00
2023-05-02T02:20:17.605Z,100.00
2023-05-02T02:22:46.253Z,100.00
2023-05-02T02:25:16.229Z,100.00
2023-05-02T02:27:44.117Z,100.00
2023-05-02T02:30:11.974Z,100.00
2023-05-02T02:32:39.143Z,100.00
2023-05-02T02:35:07.555Z,100.00
2023-05-02T02:38:01.681Z,100.00
2023-05-02T02:40:30.545Z,100.00
2023-05-02T02:43:00.763Z,100.00
2023-05-02T02:46:00.479Z,100.00
2023-05-02T02:48:38.887Z,100.00
2023-05-02T02:51:15.072Z,100.00
2023-05-02T02:53:53.405Z,100.00
2023-05-02T02:56:28.666Z,100.00
2023-05-02T02:59:02.164Z,100.00
2023-05-02T03:01:32.734Z,100.00
2023-05-02T03:04:04.596Z,100.00
2023-05-02T03:06:31.961Z,100.00
2023-05-02T03:08:59.108Z,100.00
2023-05-02T03:11:29.970Z,100.00
2023-05-02T03:13:58.407Z,100.00
2023-05-02T03:16:38.291Z,100.00
2023-05-02T03:19:09.364Z,100.00
2023-05-02T03:21:36.525Z,100.00
2023-05-02T03:24:10.546Z,100.00
2023-05-02T03:26:37.705Z,100.00
2023-05-02T03:29:07.311Z,100.00
2023-05-02T03:31:39.332Z,100.00
2023-05-02T03:34:07.147Z,100.00
2023-05-02T03:36:35.669Z,100.00
2023-05-02T03:39:02.836Z,100.00
2023-05-02T03:41:30.409Z,100.00
2023-05-02T03:44:04.002Z,100.00
2023-05-02T03:46:31.839Z,100.00
2023-05-02T03:48:59.022Z,100.00
2023-05-02T03:51:26.905Z,100.00
2023-05-02T03:53:56.835Z,100.00
2023-05-02T03:56:24.440Z,100.00
2023-05-02T03:59:01.970Z,100.00
2023-05-02T04:01:29.211Z,100.00
2023-05-02T04:03:58.267Z,100.00
2023-05-02T04:06:27.753Z,100.00
2023-05-02T04:08:59.835Z,100.00
2023-05-02T04:11:33.864Z,100.00
2023-05-02T04:14:02.901Z,100.00
2023-05-02T04:16:30.147Z,100.00
2023-05-02T04:18:57.713Z,100.00
2023-05-02T04:21:25.816Z,100.00
2023-05-02T04:23:52.983Z,100.00
2023-05-02T04:26:20.132Z,100.00
2023-05-02T04:28:53.870Z,100.00
2023-05-02T04:31:21.153Z,100.00
2023-05-02T04:33:53.595Z,100.00
2023-05-02T04:36:26.383Z,100.00
2023-05-02T04:38:53.812Z,100.00
2023-05-02T04:41:21.765Z,100.00
2023-05-02T04:43:54.930Z,100.00
2023-05-02T04:46:23.144Z,100.00
2023-05-02T04:48:50.601Z,100.00
2023-05-02T04:51:17.849Z,100.00
2023-05-02T04:53:48.139Z,100.00
2023-05-02T04:56:15.435Z,100.00
2023-05-02T04:58:42.879Z,100.00
2023-05-02T05:01:12.029Z,100.00
2023-05-02T05:03:40.238Z,100.00
2023-05-02T05:06:08.632Z,100.00
2023-05-02T05:08:35.726Z,100.00
2023-05-02T05:11:05.249Z,100.00
2023-05-02T05:13:33.401Z,100.00
2023-05-02T05:16:00.551Z,100.00
2023-05-02T05:18:31.806Z,100.00
2023-05-02T05:20:58.934Z,100.00
2023-05-02T05:23:26.225Z,100.00
2023-05-02T05:25:53.310Z,100.00
2023-05-02T05:28:20.475Z,100.00
2023-05-02T05:30:47.753Z,100.00
2023-05-02T05:33:19.724Z,100.00
2023-05-02T05:35:47.182Z,100.00
2023-05-02T05:38:14.265Z,100.00
2023-05-02T05:40:44.053Z,100.00
2023-05-02T05:43:12.085Z,100.00
2023-05-02T05:45:40.004Z,100.00
2023-05-02T05:48:07.823Z,100.00
2023-05-02T05:50:41.160Z,100.00
2023-05-02T05:53:08.283Z,100.00
2023-05-02T05:55:39.642Z,100.00
2023-05-02T05:58:08.953Z,100.00
2023-05-02T06:00:38.635Z,100.00
2023-05-02T06:03:09.595Z,100.00
2023-05-02T06:05:37.960Z,100.00
2023-05-02T06:08:05.091Z,100.00
2023-05-02T06:10:32.988Z,100.00
2023-05-02T06:13:00.361Z,100.00
2023-05-02T06:15:35.234Z,100.00
2023-05-02T06:18:04.579Z,100.00
2023-05-02T06:20:31.662Z,100.00
2023-05-02T06:22:59.420Z,100.00
2023-05-02T06:25:26.413Z,100.00
2023-05-02T06:27:53.604Z,100.00
2023-05-02T06:30:20.977Z,100.00
2023-05-02T06:32:48.040Z,100.00
2023-05-02T06:35:15.392Z,100.00
2023-05-02T06:37:42.438Z,100.00
2023-05-02T06:40:10.291Z,100.00
2023-05-02T06:42:37.318Z,100.00
2023-05-02T06:45:04.795Z,100.00
2023-05-02T06:47:33.154Z,100.00
2023-05-02T06:50:00.629Z,100.00
2023-05-02T06:52:29.604Z,100.00
2023-05-02T06:54:57.066Z,100.00
2023-05-02T06:57:25.126Z,100.00
2023-05-02T06:59:52.271Z,100.00
2023-05-02T07:02:19.219Z,100.00
2023-05-02T07:04:46.921Z,100.00
2023-05-02T07:07:15.839Z,100.00
2023-05-02T07:09:44.067Z,100.00
2023-05-02T07:12:11.131Z,100.00
2023-05-02T07:14:38.156Z,100.00
2023-05-02T07:17:05.512Z,100.00
2023-05-02T07:19:32.778Z,100.00
2023-05-02T07:22:00.031Z,100.00
2023-05-02T07:24:27.129Z,100.00
2023-05-02T07:26:54.340Z,95.98
2023-05-02T07:29:21.375Z,91.38
2023-05-02T07:31:48.719Z,91.04
2023-05-02T07:34:15.870Z,90.81
2023-05-02T07:36:43.021Z,85.84
2023-05-02T07:39:10.447Z,85.70
2023-05-02T07:41:37.541Z,89.41
2023-05-02T07:44:04.672Z,89.91
2023-05-02T07:46:31.798Z,89.53
2023-05-02T07:48:58.923Z,89.64
2023-05-02T07:51:26.984Z,88.11
2023-05-02T07:53:55.975Z,88.12
2023-05-02T07:56:22.986Z,85.81
2023-05-02T07:58:51.707Z,85.57
2023-05-02T08:01:19.010Z,84.11
2023-05-02T08:03:47.330Z,84.59
2023-05-02T08:06:14.666Z,84.15
2023-05-02T08:08:41.861Z,84.34
2023-05-02T08:11:08.949Z,83.91
2023-05-02T08:13:36.186Z,83.07
2023-05-02T08:16:03.304Z,82.78
2023-05-02T08:18:30.420Z,81.03
2023-05-02T08:20:58.928Z,81.15
2023-05-02T08:23:25.974Z,79.75
2023-05-02T08:25:53.260Z,77.04
2023-05-02T08:28:20.257Z,75.78
2023-05-02T08:30:47.385Z,77.54
2023-05-02T08:33:17.769Z,81.63
2023-05-02T08:35:44.882Z,84.36
2023-05-02T08:38:12.073Z,82.81
2023-05-02T08:40:42.850Z,82.15
2023-05-02T08:43:12.288Z,82.28
2023-05-02T08:45:42.403Z,84.19
2023-05-02T08:48:15.154Z,85.91
2023-05-02T08:50:46.761Z,87.25
2023-05-02T08:53:14.857Z,89.22
2023-05-02T08:55:43.173Z,89.70
2023-05-02T08:58:13.271Z,89.55
2023-05-02T09:00:42.416Z,89.46
2023-05-02T09:03:24.092Z,89.42
2023-05-02T09:05:57.213Z,88.13
2023-05-02T09:08:25.073Z,86.93
2023-05-02T09:10:52.141Z,85.00
2023-05-02T09:13:38.360Z,84.93
2023-05-02T09:16:12.713Z,85.60
2023-05-02T09:18:46.943Z,85.00
2023-05-02T09:21:21.263Z,84.69
2023-05-02T09:23:53.964Z,84.31
2023-05-02T09:26:35.395Z,84.28
2023-05-02T09:29:05.555Z,84.40
2023-05-02T09:34:12.122Z,86.66
2023-05-02T09:36:43.304Z,86.63
2023-05-02T09:39:13.823Z,85.34
2023-05-02T09:41:48.514Z,83.34
2023-05-02T09:44:21.431Z,82.71
2023-05-02T09:46:54.173Z,83.25
2023-05-02T09:49:46.345Z,85.03
2023-05-02T09:52:16.066Z,86.80
2023-05-02T09:54:47.529Z,86.82
2023-05-02T09:57:15.097Z,87.79
2023-05-02T09:59:52.915Z,88.61
2023-05-02T10:02:22.170Z,88.99
2023-05-02T10:04:51.733Z,88.37
2023-05-02T10:07:21.406Z,87.92
2023-05-02T10:09:52.843Z,87.97
2023-05-02T10:12:25.003Z,89.33
2023-05-02T10:15:00.576Z,91.10
2023-05-02T10:17:49.597Z,93.83
2023-05-02T10:20:23.446Z,95.10
2023-05-02T10:22:52.068Z,96.48
2023-05-02T10:25:19.515Z,97.45
2023-05-02T10:27:46.855Z,97.23
2023-05-02T10:30:14.985Z,97.01
2023-05-02T10:32:43.979Z,97.47
2023-05-02T10:35:12.075Z,99.75
2023-05-02T10:37:41.317Z,100.00
2023-05-02T10:40:12.810Z,100.00
2023-05-02T10:42:43.836Z,100.00
2023-05-02T10:45:36.987Z,100.00
2023-05-02T10:48:22.964Z,100.00
2023-05-02T10:50:55.916Z,100.00
2023-05-02T10:53:37.025Z,100.00
2023-05-02T10:56:22.748Z,100.00
2023-05-02T10:58:51.533Z,100.00
2023-05-02T11:01:36.471Z,100.00
2023-05-02T11:04:08.544Z,100.00
2023-05-02T11:06:38.233Z,100.00
2023-05-02T11:09:32.385Z,100.00
2023-05-02T11:11:59.727Z,100.00
2023-05-02T11:14:28.139Z,100.00
2023-05-02T11:17:00.783Z,100.00
2023-05-02T11:19:31.444Z,100.00
2023-05-02T11:22:22.031Z,100.00
2023-05-02T11:24:51.173Z,100.00
2023-05-02T11:27:30.519Z,100.00
2023-05-02T11:29:57.743Z,100.00
2023-05-02T11:32:27.526Z,100.00
2023-05-02T11:34:56.151Z,100.00
2023-05-02T11:37:23.221Z,100.00
2023-05-02T11:39:51.704Z,100.00
2023-05-02T11:42:32.638Z,100.00
2023-05-02T11:45:01.593Z,100.00
2023-05-02T11:47:29.752Z,100.00
2023-05-02T11:49:58.000Z,100.00
2023-05-02T11:52:25.110Z,100.00
2023-05-02T11:54:56.990Z,100.00
2023-05-02T11:57:24.218Z,100.00
2023-05-02T11:59:55.340Z,100.00
2023-05-02T12:02:39.366Z,100.00
2023-05-02T12:05:08.260Z,100.00
2023-05-02T12:07:39.838Z,97.70
2023-05-02T12:10:08.470Z,95.70
2023-05-02T12:12:36.379Z,97.31
2023-05-02T12:15:08.631Z,98.16
2023-05-02T12:17:40.846Z,100.00
2023-05-02T12:20:12.655Z,100.00
2023-05-02T12:22:40.048Z,100.00
2023-05-02T12:25:07.951Z,100.00
2023-05-02T12:27:35.415Z,100.00
2023-05-02T12:30:02.960Z,100.00
2023-05-02T12:32:35.748Z,100.00
2023-05-02T12:35:04.031Z,100.00
2023-05-02T12:37:31.241Z,100.00
2023-05-02T12:39:58.497Z,100.00
2023-05-02T12:42:26.988Z,100.00
2023-05-02T12:44:54.157Z,100.00
2023-05-02T12:47:23.058Z,100.00
2023-05-02T12:49:59.300Z,100.00
2023-05-02T12:52:50.070Z,100.00
2023-05-02T12:55:20.020Z,100.00
2023-05-02T12:57:47.662Z,100.00
2023-05-02T13:00:18.379Z,100.00
2023-05-02T13:02:45.505Z,99.57
2023-05-02T13:05:16.708Z,98.83
2023-05-02T13:07:44.077Z,98.48
2023-05-02T13:10:12.311Z,96.82
2023-05-02T13:12:40.255Z,94.96
2023-05-02T13:15:09.094Z,95.56
2023-05-02T13:17:36.372Z,95.85
2023-05-02T13:20:03.835Z,94.32
2023-05-02T13:22:31.318Z,91.30
2023-05-02T13:24:58.364Z,91.08
2023-05-02T13:27:25.911Z,90.18
2023-05-02T13:29:53.142Z,90.41
2023-05-02T13:32:20.615Z,83.28
2023-05-02T13:34:48.213Z,81.61
2023-05-02T13:37:15.606Z,80.00
2023-05-02T13:39:42.695Z,80.85
2023-05-02T13:42:10.013Z,80.98
2023-05-02T13:44:37.010Z,78.89
2023-05-02T13:47:04.300Z,81.48
2023-05-02T13:49:31.700Z,80.54
2023-05-02T13:51:58.792Z,81.26
2023-05-02T13:54:26.335Z,78.86
2023-05-02T13:56:53.557Z,80.99
2023-05-02T13:59:20.570Z,83.23
2023-05-02T14:01:47.773Z,86.98
2023-05-02T14:04:15.051Z,88.92
2023-05-02T14:06:42.340Z,90.91
2023-05-02T14:09:10.008Z,92.34
2023-05-02T14:11:37.232Z,92.61
2023-05-02T14:14:04.260Z,92.52
2023-05-02T14:16:31.515Z,93.10
2023-05-02T14:18:59.039Z,94.79
2023-05-02T14:21:26.192Z,95.81
2023-05-02T14:23:53.177Z,98.14
2023-05-02T14:26:20.575Z,100.00
2023-05-02T14:28:47.634Z,100.00
2023-05-02T14:31:14.921Z,100.00
2023-05-02T14:33:43.588Z,100.00
2023-05-02T14:36:10.727Z,100.00
2023-05-02T14:38:37.795Z,100.00
2023-05-02T14:41:06.070Z,100.00
2023-05-02T14:43:33.196Z,100.00
2023-05-02T14:46:00.235Z,100.00
2023-05-02T14:48:27.416Z,100.00
2023-05-02T14:50:54.409Z,100.00
2023-05-02T14:53:21.650Z,100.00
2023-05-02T14:55:48.677Z,100.00
2023-05-02T14:58:20.776Z,100.00
2023-05-02T15:00:48.311Z,100.00
2023-05-02T15:03:15.728Z,100.00
2023-05-02T15:05:43.029Z,100.00
2023-05-02T15:08:10.218Z,100.00
2023-05-02T15:10:38.401Z,100.00
2023-05-02T15:13:06.182Z,100.00
2023-05-02T15:15:33.337Z,100.00
2023-05-02T15:18:00.484Z,100.00
2023-05-02T15:20:27.642Z,99.89
2023-05-02T15:22:54.826Z,99.47
2023-05-02T15:25:21.910Z,99.01
2023-05-02T15:27:48.956Z,98.12
2023-05-02T15:30:17.887Z,97.88
2023-05-02T15:32:45.133Z,97.41
2023-05-02T15:35:12.687Z,97.20
2023-05-02T15:37:39.782Z,97.18
2023-05-02T15:40:07.855Z,95.74
2023-05-02T15:42:37.261Z,94.21
2023-05-02T15:45:04.857Z,93.61
2023-05-02T15:47:32.801Z,93.30
2023-05-02T15:50:00.647Z,92.93
2023-05-02T15:52:27.951Z,92.68
2023-05-02T15:54:56.283Z,93.62
2023-05-02T15:57:23.416Z,93.75
2023-05-02T15:59:50.431Z,93.03
2023-05-02T16:02:17.637Z,93.64
2023-05-02T16:04:44.707Z,93.73
2023-05-02T16:07:11.847Z,93.71
2023-05-02T16:09:39.941Z,93.69
2023-05-02T16:12:07.468Z,93.58
2023-05-02T16:14:35.024Z,94.04
2023-05-02T16:17:06.437Z,94.10
2023-05-02T16:19:33.723Z,92.99
2023-05-02T16:22:01.499Z,92.94
2023-05-02T16:24:28.987Z,92.85
2023-05-02T16:26:56.639Z,93.71
2023-05-02T16:29:24.315Z,94.05
2023-05-02T16:31:51.730Z,93.81
2023-05-02T16:34:19.145Z,93.61
2023-05-02T16:36:47.122Z,92.87
2023-05-02T16:39:14.571Z,92.52
2023-05-02T16:41:42.436Z,92.26
2023-05-02T16:44:10.764Z,92.05
2023-05-02T16:46:38.311Z,91.61
2023-05-02T16:49:06.901Z,91.84
2023-05-02T16:51:34.251Z,91.83
2023-05-02T16:54:01.501Z,91.43
2023-05-02T16:56:29.545Z,91.49
2023-05-02T16:58:56.688Z,90.88
2023-05-02T17:01:25.115Z,90.50
2023-05-02T17:03:52.412Z,90.06
2023-05-02T17:06:19.566Z,90.19
2023-05-02T17:08:46.884Z,89.42
2023-05-02T17:11:13.918Z,89.75
2023-05-02T17:13:42.535Z,89.86
2023-05-02T17:16:10.039Z,89.97
2023-05-02T17:18:37.404Z,89.78
2023-05-02T17:21:04.793Z,89.63
2023-05-02T17:23:31.810Z,89.18
2023-05-02T17:25:59.046Z,89.17
2023-05-02T17:28:26.090Z,89.11
2023-05-02T17:30:54.814Z,89.19
2023-05-02T17:33:22.384Z,89.12
2023-05-02T17:35:49.546Z,88.86
2023-05-02T17:38:16.666Z,88.86
2023-05-02T17:40:43.736Z,90.07
2023-05-02T17:43:11.168Z,90.33
2023-05-02T17:45:39.656Z,90.73
2023-05-02T17:48:06.851Z,90.46
2023-05-02T17:50:40.960Z,90.58
2023-05-02T17:53:08.663Z,89.57
2023-05-02T17:55:39.480Z,88.57
2023-05-02T17:58:06.875Z,88.16
2023-05-02T18:00:34.016Z,88.17
2023-05-02T18:03:01.249Z,89.79
2023-05-02T18:05:28.299Z,92.29
2023-05-02T18:07:56.143Z,93.05
2023-05-02T18:10:23.150Z,93.53
2023-05-02T18:12:50.580Z,93.34
2023-05-02T18:15:17.748Z,91.80
2023-05-02T18:17:44.808Z,91.67
2023-05-02T18:20:12.333Z,92.51
2023-05-02T18:22:40.115Z,92.83
2023-05-02T18:25:07.801Z,94.01
2023-05-02T18:27:35.164Z,94.63
2023-05-02T18:30:02.619Z,95.53
2023-05-02T18:32:31.607Z,95.77
2023-05-02T18:34:58.771Z,95.90
2023-05-02T18:37:31.809Z,96.27
2023-05-02T18:39:59.224Z,95.75
2023-05-02T18:42:26.732Z,95.96
2023-05-02T18:44:54.008Z,96.53
2023-05-02T18:47:21.780Z,96.72
2023-05-02T18:49:50.370Z,96.95
2023-05-02T18:52:17.587Z,97.45
2023-05-02T18:54:44.725Z,97.47
2023-05-02T18:57:12.779Z,97.69
2023-05-02T18:59:39.837Z,97.86
2023-05-02T19:02:07.397Z,98.03
2023-05-02T19:04:34.596Z,97.88
2023-05-02T19:07:01.772Z,98.18
2023-05-02T19:09:29.016Z,98.13
2023-05-02T19:11:56.002Z,98.14
2023-05-02T19:14:23.322Z,98.13
2023-05-02T19:16:51.098Z,98.06
2023-05-02T19:19:18.716Z,97.99
2023-05-02T19:21:47.147Z,98.14
2023-05-02T19:24:14.309Z,98.19
2023-05-02T19:26:42.159Z,98.17
2023-05-02T19:29:09.491Z,97.94
2023-05-02T19:31:37.106Z,97.94
2023-05-02T19:34:04.199Z,97.96
2023-05-02T19:36:32.381Z,98.01
2023-05-02T19:38:59.550Z,98.08
2023-05-02T19:41:26.797Z,98.13
2023-05-02T19:43:55.790Z,98.22
2023-05-02T19:46:23.141Z,98.42
2023-05-02T19:48:50.587Z,98.49
2023-05-02T19:51:27.592Z,98.64
2023-05-02T19:53:56.972Z,98.32
2023-05-02T19:56:25.842Z,98.06
2023-05-02T19:58:54.132Z,97.68
2023-05-02T20:01:21.736Z,97.52
2023-05-02T20:03:49.153Z,97.72
2023-05-02T20:06:16.570Z,97.52
2023-05-02T20:08:43.679Z,97.95
2023-05-02T20:11:11.108Z,98.28
2023-05-02T20:13:38.521Z,98.25
2023-05-02T20:16:05.893Z,98.20
2023-05-02T20:18:33.003Z,97.91
2023-05-02T20:21:00.566Z,97.78
2023-05-02T20:23:27.968Z,97.49
2023-05-02T20:25:55.761Z,97.52
2023-05-02T20:28:22.887Z,97.17
2023-05-02T20:30:50.780Z,97.11
2023-05-02T20:33:19.493Z,96.94
2023-05-02T20:35:56.060Z,96.82
2023-05-02T20:38:24.395Z,96.57
2023-05-02T20:40:51.676Z,96.48
2023-05-02T20:43:19.084Z,96.78
2023-05-02T20:45:47.316Z,96.69
2023-05-02T20:48:18.368Z,96.87
2023-05-02T20:50:54.965Z,96.48
2023-05-02T20:53:23.933Z,96.15
2023-05-02T20:55:51.500Z,96.40
2023-05-02T20:58:18.566Z,96.34
2023-05-02T21:00:52.719Z,96.60
2023-05-02T21:03:20.699Z,96.22
2023-05-02T21:05:52.862Z,96.39
2023-05-02T21:08:21.964Z,96.10
2023-05-02T21:10:49.247Z,96.52
2023-05-02T21:13:16.572Z,96.75
2023-05-02T21:15:43.796Z,96.87
2023-05-02T21:18:11.628Z,97.23
2023-05-02T21:20:41.642Z,97.88
2023-05-02T21:23:12.313Z,98.23
2023-05-02T21:25:39.771Z,98.80
2023-05-02T21:28:06.812Z,98.84
2023-05-02T21:30:34.002Z,99.06
2023-05-02T21:33:01.061Z,99.58
2023-05-02T21:35:28.964Z,99.99
2023-05-02T21:37:56.023Z,100.00
2023-05-02T21:40:23.126Z,100.00
2023-05-02T21:42:50.175Z,100.00
2023-05-02T21:45:17.460Z,100.00
2023-05-02T21:47:44.656Z,100.00
2023-05-02T21:50:11.777Z,100.00
2023-05-02T21:52:38.970Z,100.00
2023-05-02T21:55:06.435Z,100.00
2023-05-02T21:57:33.537Z,100.00
2023-05-02T22:00:00.919Z,100.00
2023-05-02T22:02:28.602Z,100.00
2023-05-02T22:04:57.931Z,100.00
2023-05-02T22:07:25.219Z,100.00
2023-05-02T22:09:52.614Z,100.00
2023-05-02T22:12:25.682Z,100.00
2023-05-02T22:14:52.808Z,100.00
2023-05-02T22:17:21.753Z,100.00
2023-05-02T22:19:50.277Z,100.00
2023-05-02T22:22:17.286Z,100.00
2023-05-02T22:24:44.392Z,100.00
2023-05-02T22:27:11.441Z,100.00
2023-05-02T22:29:38.573Z,100.00
2023-05-02T22:32:06.029Z,100.00
2023-05-02T22:34:33.407Z,100.00
2023-05-02T22:37:00.537Z,100.00
2023-05-02T22:39:27.900Z,100.00
2023-05-02T22:41:54.914Z,100.00
2023-05-02T22:44:21.946Z,100.00
2023-05-02T22:46:49.161Z,100.00
2023-05-02T22:49:16.515Z,100.00
2023-05-02T22:51:45.420Z,100.00
2023-05-02T22:54:15.153Z,100.00
2023-05-02T22:56:42.322Z,100.00
2023-05-02T22:59:10.036Z,100.00
2023-05-02T23:01:37.252Z,100.00
2023-05-02T23:04:04.554Z,100.00
2023-05-02T23:06:31.892Z,100.00
2023-05-02T23:08:58.914Z,100.00
2023-05-02T23:11:26.115Z,100.00
2023-05-02T23:13:53.178Z,100.00
2023-05-02T23:16:20.415Z,100.00
2023-05-02T23:18:47.797Z,100.00
2023-05-02T23:21:16.372Z,100.00
2023-05-02T23:23:43.573Z,100.00
2023-05-02T23:26:11.151Z,100.00
2023-05-02T23:28:38.970Z,100.00
2023-05-02T23:31:07.106Z,100.00
2023-05-02T23:33:36.120Z,100.00
2023-05-02T23:36:03.948Z,100.00
2023-05-02T23:38:31.740Z,100.00
2023-05-02T23:40:59.011Z,100.00
2023-05-02T23:43:26.491Z,100.00
2023-05-02T23:45:53.501Z,100.00
2023-05-02T23:48:20.561Z,100.00
2023-05-02T23:50:47.882Z,100.00
2023-05-02T23:53:14.848Z,100.00
2023-05-02T23:55:42.018Z,100.00
2023-05-02T23:58:08.981Z,100.00
